sensor_id;sensor_type;location;lat;lon;timestamp;temperature;humidity
31443;SHT31;18065;55.876;9.830;2022-07-17T00:02:27;21.09;46.74
31443;SHT31;18065;55.876;9.830;2022-07-17T00:04:56;21.11;46.83
31443;SHT31;18065;55.876;9.830;2022-07-17T00:07:25;21.01;47.07
31443;SHT31;18065;55.876;9.830;2022-07-17T00:09:53;21.04;47.10
31443;SHT31;18065;55.876;9.830;2022-07-17T00:12:22;20.98;47.32
31443;SHT31;18065;55.876;9.830;2022-07-17T00:14:51;20.95;47.20
31443;SHT31;18065;55.876;9.830;2022-07-17T00:17:20;21.02;47.16
31443;SHT31;18065;55.876;9.830;2022-07-17T00:19:52;20.94;47.36
31443;SHT31;18065;55.876;9.830;2022-07-17T00:22:20;20.99;47.26
31443;SHT31;18065;55.876;9.830;2022-07-17T00:24:49;20.99;47.21
31443;SHT31;18065;55.876;9.830;2022-07-17T00:27:18;20.98;47.25
31443;SHT31;18065;55.876;9.830;2022-07-17T00:29:46;20.95;47.44
31443;SHT31;18065;55.876;9.830;2022-07-17T00:32:15;21.01;47.37
31443;SHT31;18065;55.876;9.830;2022-07-17T00:34:44;20.99;47.44
31443;SHT31;18065;55.876;9.830;2022-07-17T00:37:16;20.98;47.53
31443;SHT31;18065;55.876;9.830;2022-07-17T00:39:44;20.95;47.55
31443;SHT31;18065;55.876;9.830;2022-07-17T00:42:14;20.87;47.77
31443;SHT31;18065;55.876;9.830;2022-07-17T00:44:44;20.90;47.69
31443;SHT31;18065;55.876;9.830;2022-07-17T00:47:14;20.80;47.95
31443;SHT31;18065;55.876;9.830;2022-07-17T00:49:44;20.73;48.13
31443;SHT31;18065;55.876;9.830;2022-07-17T00:52:16;20.70;48.10
31443;SHT31;18065;55.876;9.830;2022-07-17T00:54:46;20.78;48.04
31443;SHT31;18065;55.876;9.830;2022-07-17T00:57:15;20.77;48.04
31443;SHT31;18065;55.876;9.830;2022-07-17T00:59:44;20.87;47.90
31443;SHT31;18065;55.876;9.830;2022-07-17T01:02:13;20.87;47.88
31443;SHT31;18065;55.876;9.830;2022-07-17T01:04:42;20.81;48.13
31443;SHT31;18065;55.876;9.830;2022-07-17T01:07:11;20.83;48.00
31443;SHT31;18065;55.876;9.830;2022-07-17T01:09:43;20.78;48.11
31443;SHT31;18065;55.876;9.830;2022-07-17T01:12:12;20.84;48.00
31443;SHT31;18065;55.876;9.830;2022-07-17T01:14:41;20.84;48.00
31443;SHT31;18065;55.876;9.830;2022-07-17T01:17:10;20.87;47.96
31443;SHT31;18065;55.876;9.830;2022-07-17T01:19:39;20.95;47.83
31443;SHT31;18065;55.876;9.830;2022-07-17T01:22:10;20.95;47.81
31443;SHT31;18065;55.876;9.830;2022-07-17T01:24:39;20.91;48.03
31443;SHT31;18065;55.876;9.830;2022-07-17T01:27:08;20.88;48.01
31443;SHT31;18065;55.876;9.830;2022-07-17T01:29:37;20.98;47.93
31443;SHT31;18065;55.876;9.830;2022-07-17T01:32:06;20.94;48.00
31443;SHT31;18065;55.876;9.830;2022-07-17T01:34:36;20.91;48.12
31443;SHT31;18065;55.876;9.830;2022-07-17T01:37:05;20.88;48.06
31443;SHT31;18065;55.876;9.830;2022-07-17T01:39:36;20.98;47.94
31443;SHT31;18065;55.876;9.830;2022-07-17T01:42:17;21.02;47.82
31443;SHT31;18065;55.876;9.830;2022-07-17T01:44:46;21.05;47.78
31443;SHT31;18065;55.876;9.830;2022-07-17T01:47:15;20.97;47.98
31443;SHT31;18065;55.876;9.830;2022-07-17T01:49:44;20.94;48.05
31443;SHT31;18065;55.876;9.830;2022-07-17T01:52:13;20.90;48.15
31443;SHT31;18065;55.876;9.830;2022-07-17T01:54:45;20.76;48.40
31443;SHT31;18065;55.876;9.830;2022-07-17T01:57:14;20.67;48.60
31443;SHT31;18065;55.876;9.830;2022-07-17T01:59:43;20.60;48.64
31443;SHT31;18065;55.876;9.830;2022-07-17T02:02:14;20.59;48.77
31443;SHT31;18065;55.876;9.830;2022-07-17T02:04:43;20.56;48.83
31443;SHT31;18065;55.876;9.830;2022-07-17T02:07:12;20.56;48.84
31443;SHT31;18065;55.876;9.830;2022-07-17T02:09:41;20.50;48.98
31443;SHT31;18065;55.876;9.830;2022-07-17T02:12:13;20.44;49.14
31443;SHT31;18065;55.876;9.830;2022-07-17T02:14:41;20.40;49.16
31443;SHT31;18065;55.876;9.830;2022-07-17T02:17:10;20.41;49.18
31443;SHT31;18065;55.876;9.830;2022-07-17T02:19:39;20.39;49.22
31443;SHT31;18065;55.876;9.830;2022-07-17T02:22:07;20.41;49.07
31443;SHT31;18065;55.876;9.830;2022-07-17T02:24:36;20.40;49.21
31443;SHT31;18065;55.876;9.830;2022-07-17T02:27:05;20.46;49.13
31443;SHT31;18065;55.876;9.830;2022-07-17T02:29:36;20.53;49.00
31443;SHT31;18065;55.876;9.830;2022-07-17T02:32:05;20.47;49.00
31443;SHT31;18065;55.876;9.830;2022-07-17T02:34:34;20.51;49.01
31443;SHT31;18065;55.876;9.830;2022-07-17T02:37:02;20.56;48.88
31443;SHT31;18065;55.876;9.830;2022-07-17T02:39:31;20.47;49.11
31443;SHT31;18065;55.876;9.830;2022-07-17T02:42:00;20.39;49.34
31443;SHT31;18065;55.876;9.830;2022-07-17T02:44:29;20.40;49.36
31443;SHT31;18065;55.876;9.830;2022-07-17T02:47:01;20.37;49.52
31443;SHT31;18065;55.876;9.830;2022-07-17T02:49:30;20.26;49.83
31443;SHT31;18065;55.876;9.830;2022-07-17T02:51:59;20.22;50.05
31443;SHT31;18065;55.876;9.830;2022-07-17T02:54:27;20.20;50.04
31443;SHT31;18065;55.876;9.830;2022-07-17T02:56:56;20.20;50.05
31443;SHT31;18065;55.876;9.830;2022-07-17T02:59:25;20.19;50.25
31443;SHT31;18065;55.876;9.830;2022-07-17T03:01:53;20.22;50.21
31443;SHT31;18065;55.876;9.830;2022-07-17T03:04:25;20.09;50.49
31443;SHT31;18065;55.876;9.830;2022-07-17T03:06:53;19.97;50.93
31443;SHT31;18065;55.876;9.830;2022-07-17T03:09:22;19.97;51.01
31443;SHT31;18065;55.876;9.830;2022-07-17T03:11:51;19.93;51.04
31443;SHT31;18065;55.876;9.830;2022-07-17T03:14:20;19.98;51.04
31443;SHT31;18065;55.876;9.830;2022-07-17T03:16:48;20.04;50.81
31443;SHT31;18065;55.876;9.830;2022-07-17T03:19:17;20.12;50.74
31443;SHT31;18065;55.876;9.830;2022-07-17T03:21:48;20.06;50.87
31443;SHT31;18065;55.876;9.830;2022-07-17T03:24:17;20.06;50.93
31443;SHT31;18065;55.876;9.830;2022-07-17T03:26:46;20.04;51.03
31443;SHT31;18065;55.876;9.830;2022-07-17T03:29:15;20.04;51.16
31443;SHT31;18065;55.876;9.830;2022-07-17T03:31:44;19.98;51.29
31443;SHT31;18065;55.876;9.830;2022-07-17T03:34:13;20.02;51.23
31443;SHT31;18065;55.876;9.830;2022-07-17T03:36:42;19.98;51.44
31443;SHT31;18065;55.876;9.830;2022-07-17T03:39:13;19.98;51.50
31443;SHT31;18065;55.876;9.830;2022-07-17T03:41:42;19.91;51.63
31443;SHT31;18065;55.876;9.830;2022-07-17T03:44:11;19.98;51.53
31443;SHT31;18065;55.876;9.830;2022-07-17T03:46:40;19.92;51.80
31443;SHT31;18065;55.876;9.830;2022-07-17T03:49:08;19.81;52.06
31443;SHT31;18065;55.876;9.830;2022-07-17T03:51:37;19.82;52.15
31443;SHT31;18065;55.876;9.830;2022-07-17T03:54:06;19.83;52.12
31443;SHT31;18065;55.876;9.830;2022-07-17T03:56:37;19.78;52.24
31443;SHT31;18065;55.876;9.830;2022-07-17T03:59:06;19.77;52.33
31443;SHT31;18065;55.876;9.830;2022-07-17T04:01:35;19.75;52.39
31443;SHT31;18065;55.876;9.830;2022-07-17T04:04:04;19.81;52.36
31443;SHT31;18065;55.876;9.830;2022-07-17T04:06:32;19.82;52.40
31443;SHT31;18065;55.876;9.830;2022-07-17T04:09:01;19.75;52.56
31443;SHT31;18065;55.876;9.830;2022-07-17T04:11:31;19.79;52.59
31443;SHT31;18065;55.876;9.830;2022-07-17T04:14:02;19.78;52.47
31443;SHT31;18065;55.876;9.830;2022-07-17T04:16:31;19.82;52.39
31443;SHT31;18065;55.876;9.830;2022-07-17T04:19:00;19.81;52.45
31443;SHT31;18065;55.876;9.830;2022-07-17T04:21:28;19.85;52.34
31443;SHT31;18065;55.876;9.830;2022-07-17T04:23:57;19.82;52.46
31443;SHT31;18065;55.876;9.830;2022-07-17T04:26:26;19.86;52.43
31443;SHT31;18065;55.876;9.830;2022-07-17T04:28:54;19.85;52.47
31443;SHT31;18065;55.876;9.830;2022-07-17T04:31:26;19.83;52.49
31443;SHT31;18065;55.876;9.830;2022-07-17T04:33:54;19.88;52.42
31443;SHT31;18065;55.876;9.830;2022-07-17T04:36:23;19.85;52.44
31443;SHT31;18065;55.876;9.830;2022-07-17T04:38:52;19.83;52.46
31443;SHT31;18065;55.876;9.830;2022-07-17T04:41:21;19.85;52.54
31443;SHT31;18065;55.876;9.830;2022-07-17T04:43:49;19.91;52.40
31443;SHT31;18065;55.876;9.830;2022-07-17T04:46:19;19.89;52.42
31443;SHT31;18065;55.876;9.830;2022-07-17T04:48:50;19.93;52.40
31443;SHT31;18065;55.876;9.830;2022-07-17T04:51:19;19.89;52.43
31443;SHT31;18065;55.876;9.830;2022-07-17T04:53:48;19.91;52.43
31443;SHT31;18065;55.876;9.830;2022-07-17T04:56:16;19.97;52.28
31443;SHT31;18065;55.876;9.830;2022-07-17T04:58:45;19.93;52.47
31443;SHT31;18065;55.876;9.830;2022-07-17T05:01:14;19.88;52.60
31443;SHT31;18065;55.876;9.830;2022-07-17T05:03:43;19.85;52.70
31443;SHT31;18065;55.876;9.830;2022-07-17T05:06:14;19.91;52.51
31443;SHT31;18065;55.876;9.830;2022-07-17T05:08:43;19.89;52.56
31443;SHT31;18065;55.876;9.830;2022-07-17T05:11:12;19.92;52.55
31443;SHT31;18065;55.876;9.830;2022-07-17T05:13:40;19.91;52.54
31443;SHT31;18065;55.876;9.830;2022-07-17T05:16:09;19.91;52.62
31443;SHT31;18065;55.876;9.830;2022-07-17T05:18:38;19.89;52.66
31443;SHT31;18065;55.876;9.830;2022-07-17T05:21:07;19.89;52.67
31443;SHT31;18065;55.876;9.830;2022-07-17T05:23:38;19.91;52.70
31443;SHT31;18065;55.876;9.830;2022-07-17T05:26:08;19.93;52.62
31443;SHT31;18065;55.876;9.830;2022-07-17T05:28:37;19.92;52.68
31443;SHT31;18065;55.876;9.830;2022-07-17T05:31:06;19.92;52.65
31443;SHT31;18065;55.876;9.830;2022-07-17T05:33:35;19.93;52.78
31443;SHT31;18065;55.876;9.830;2022-07-17T05:36:04;19.89;52.96
31443;SHT31;18065;55.876;9.830;2022-07-17T05:38:33;19.86;53.17
31443;SHT31;18065;55.876;9.830;2022-07-17T05:41:05;19.83;53.32
31443;SHT31;18065;55.876;9.830;2022-07-17T05:43:34;19.78;53.45
31443;SHT31;18065;55.876;9.830;2022-07-17T05:46:03;19.79;53.35
31443;SHT31;18065;55.876;9.830;2022-07-17T05:48:32;19.92;53.12
31443;SHT31;18065;55.876;9.830;2022-07-17T05:51:01;19.98;52.90
31443;SHT31;18065;55.876;9.830;2022-07-17T05:53:29;20.02;52.85
31443;SHT31;18065;55.876;9.830;2022-07-17T05:55:59;20.01;52.94
31443;SHT31;18065;55.876;9.830;2022-07-17T05:58:30;20.04;52.75
31443;SHT31;18065;55.876;9.830;2022-07-17T06:00:59;20.06;52.79
31443;SHT31;18065;55.876;9.830;2022-07-17T06:03:27;20.10;52.71
31443;SHT31;18065;55.876;9.830;2022-07-17T06:05:57;20.09;52.69
31443;SHT31;18065;55.876;9.830;2022-07-17T06:08:26;20.09;52.88
31443;SHT31;18065;55.876;9.830;2022-07-17T06:10:54;20.08;52.81
31443;SHT31;18065;55.876;9.830;2022-07-17T06:13:23;20.18;52.78
31443;SHT31;18065;55.876;9.830;2022-07-17T06:15:54;20.13;52.88
31443;SHT31;18065;55.876;9.830;2022-07-17T06:18:24;20.22;52.78
31443;SHT31;18065;55.876;9.830;2022-07-17T06:20:53;20.23;52.72
31443;SHT31;18065;55.876;9.830;2022-07-17T06:23:22;20.25;52.71
31443;SHT31;18065;55.876;9.830;2022-07-17T06:25:51;20.09;53.23
31443;SHT31;18065;55.876;9.830;2022-07-17T06:28:19;20.06;53.32
31443;SHT31;18065;55.876;9.830;2022-07-17T06:30:48;20.12;53.19
31443;SHT31;18065;55.876;9.830;2022-07-17T06:33:22;20.10;53.14
31443;SHT31;18065;55.876;9.830;2022-07-17T06:35:51;20.18;53.20
31443;SHT31;18065;55.876;9.830;2022-07-17T06:38:21;20.22;53.30
31443;SHT31;18065;55.876;9.830;2022-07-17T06:40:50;20.15;53.45
31443;SHT31;18065;55.876;9.830;2022-07-17T06:43:18;20.15;53.45
31443;SHT31;18065;55.876;9.830;2022-07-17T06:45:48;20.06;53.80
31443;SHT31;18065;55.876;9.830;2022-07-17T06:48:22;20.02;54.02
31443;SHT31;18065;55.876;9.830;2022-07-17T06:50:51;19.95;54.22
31443;SHT31;18065;55.876;9.830;2022-07-17T06:53:20;19.95;54.39
31443;SHT31;18065;55.876;9.830;2022-07-17T06:55:49;20.01;54.31
31443;SHT31;18065;55.876;9.830;2022-07-17T06:58:17;20.04;54.26
31443;SHT31;18065;55.876;9.830;2022-07-17T07:00:46;20.04;54.26
31443;SHT31;18065;55.876;9.830;2022-07-17T07:03:15;20.08;54.23
31443;SHT31;18065;55.876;9.830;2022-07-17T07:05:48;20.02;54.28
31443;SHT31;18065;55.876;9.830;2022-07-17T07:08:16;20.05;54.20
31443;SHT31;18065;55.876;9.830;2022-07-17T07:10:45;20.04;54.11
31443;SHT31;18065;55.876;9.830;2022-07-17T07:13:14;20.01;54.34
31443;SHT31;18065;55.876;9.830;2022-07-17T07:15:43;20.02;54.13
31443;SHT31;18065;55.876;9.830;2022-07-17T07:18:11;19.93;54.36
31443;SHT31;18065;55.876;9.830;2022-07-17T07:20:40;19.85;54.59
31443;SHT31;18065;55.876;9.830;2022-07-17T07:23:11;19.83;54.62
31443;SHT31;18065;55.876;9.830;2022-07-17T07:25:40;19.91;54.52
31443;SHT31;18065;55.876;9.830;2022-07-17T07:28:10;19.95;54.36
31443;SHT31;18065;55.876;9.830;2022-07-17T07:30:39;20.04;54.04
31443;SHT31;18065;55.876;9.830;2022-07-17T07:33:08;20.01;54.09
31443;SHT31;18065;55.876;9.830;2022-07-17T07:35:37;20.02;53.99
31443;SHT31;18065;55.876;9.830;2022-07-17T07:38:05;20.12;53.88
31443;SHT31;18065;55.876;9.830;2022-07-17T07:40:37;20.06;53.99
31443;SHT31;18065;55.876;9.830;2022-07-17T07:43:05;20.22;53.66
31443;SHT31;18065;55.876;9.830;2022-07-17T07:45:34;20.25;53.37
31443;SHT31;18065;55.876;9.830;2022-07-17T07:48:04;20.29;53.17
31443;SHT31;18065;55.876;9.830;2022-07-17T07:50:32;20.25;53.21
31443;SHT31;18065;55.876;9.830;2022-07-17T07:53:01;20.25;53.25
31443;SHT31;18065;55.876;9.830;2022-07-17T07:55:30;20.29;53.13
31443;SHT31;18065;55.876;9.830;2022-07-17T07:58:06;20.30;53.16
31443;SHT31;18065;55.876;9.830;2022-07-17T08:00:36;20.34;53.06
31443;SHT31;18065;55.876;9.830;2022-07-17T08:03:06;20.28;52.88
31443;SHT31;18065;55.876;9.830;2022-07-17T08:05:35;20.18;52.99
31443;SHT31;18065;55.876;9.830;2022-07-17T08:08:04;20.23;52.93
31443;SHT31;18065;55.876;9.830;2022-07-17T08:10:33;20.33;52.88
31443;SHT31;18065;55.876;9.830;2022-07-17T08:13:05;20.50;52.66
31443;SHT31;18065;55.876;9.830;2022-07-17T08:15:33;20.50;52.76
31443;SHT31;18065;55.876;9.830;2022-07-17T08:18:02;20.50;52.76
31443;SHT31;18065;55.876;9.830;2022-07-17T08:20:32;20.44;52.92
31443;SHT31;18065;55.876;9.830;2022-07-17T08:23:00;20.44;52.87
31443;SHT31;18065;55.876;9.830;2022-07-17T08:25:29;20.56;52.70
31443;SHT31;18065;55.876;9.830;2022-07-17T08:27:58;20.50;52.52
31443;SHT31;18065;55.876;9.830;2022-07-17T08:30:30;20.51;52.43
31443;SHT31;18065;55.876;9.830;2022-07-17T08:33:01;20.50;52.53
31443;SHT31;18065;55.876;9.830;2022-07-17T08:35:29;20.53;52.37
31443;SHT31;18065;55.876;9.830;2022-07-17T08:37:58;20.53;52.43
31443;SHT31;18065;55.876;9.830;2022-07-17T08:40:30;20.46;52.51
31443;SHT31;18065;55.876;9.830;2022-07-17T08:43:00;20.40;52.50
31443;SHT31;18065;55.876;9.830;2022-07-17T08:45:32;20.40;52.48
31443;SHT31;18065;55.876;9.830;2022-07-17T08:48:01;20.43;52.40
31443;SHT31;18065;55.876;9.830;2022-07-17T08:50:33;20.44;52.50
31443;SHT31;18065;55.876;9.830;2022-07-17T08:53:03;20.47;52.47
31443;SHT31;18065;55.876;9.830;2022-07-17T08:55:32;20.53;52.24
31443;SHT31;18065;55.876;9.830;2022-07-17T08:58:01;20.57;52.35
31443;SHT31;18065;55.876;9.830;2022-07-17T09:00:32;20.53;52.08
31443;SHT31;18065;55.876;9.830;2022-07-17T09:03:04;20.51;52.19
31443;SHT31;18065;55.876;9.830;2022-07-17T09:05:34;20.56;52.16
31443;SHT31;18065;55.876;9.830;2022-07-17T09:08:05;20.57;52.27
31443;SHT31;18065;55.876;9.830;2022-07-17T09:10:36;20.54;52.43
31443;SHT31;18065;55.876;9.830;2022-07-17T09:13:17;20.61;52.25
31443;SHT31;18065;55.876;9.830;2022-07-17T09:15:50;20.60;51.91
31443;SHT31;18065;55.876;9.830;2022-07-17T09:18:19;20.60;51.79
31443;SHT31;18065;55.876;9.830;2022-07-17T09:20:50;20.73;51.56
31443;SHT31;18065;55.876;9.830;2022-07-17T09:23:20;20.71;51.64
31443;SHT31;18065;55.876;9.830;2022-07-17T09:25:51;20.70;51.70
31443;SHT31;18065;55.876;9.830;2022-07-17T09:28:20;20.71;51.70
31443;SHT31;18065;55.876;9.830;2022-07-17T09:30:53;20.78;51.64
31443;SHT31;18065;55.876;9.830;2022-07-17T09:33:26;20.76;51.78
31443;SHT31;18065;55.876;9.830;2022-07-17T09:35:57;20.80;51.85
31443;SHT31;18065;55.876;9.830;2022-07-17T09:38:32;20.83;51.88
31443;SHT31;18065;55.876;9.830;2022-07-17T09:41:05;20.84;52.07
31443;SHT31;18065;55.876;9.830;2022-07-17T09:43:43;20.94;51.87
31443;SHT31;18065;55.876;9.830;2022-07-17T09:46:20;20.97;51.97
31443;SHT31;18065;55.876;9.830;2022-07-17T09:48:51;20.94;51.95
31443;SHT31;18065;55.876;9.830;2022-07-17T09:51:22;21.07;51.74
31443;SHT31;18065;55.876;9.830;2022-07-17T09:53:53;21.04;51.79
31443;SHT31;18065;55.876;9.830;2022-07-17T09:56:23;21.04;51.83
31443;SHT31;18065;55.876;9.830;2022-07-17T09:58:55;21.07;51.98
31443;SHT31;18065;55.876;9.830;2022-07-17T10:01:27;21.12;51.87
31443;SHT31;18065;55.876;9.830;2022-07-17T10:03:57;21.08;52.15
31443;SHT31;18065;55.876;9.830;2022-07-17T10:06:26;21.02;52.31
31443;SHT31;18065;55.876;9.830;2022-07-17T10:08:55;21.08;52.38
31443;SHT31;18065;55.876;9.830;2022-07-17T10:11:27;21.07;52.39
31443;SHT31;18065;55.876;9.830;2022-07-17T10:14:02;21.04;52.47
31443;SHT31;18065;55.876;9.830;2022-07-17T10:16:34;21.04;52.52
31443;SHT31;18065;55.876;9.830;2022-07-17T10:19:15;21.08;52.48
31443;SHT31;18065;55.876;9.830;2022-07-17T10:21:54;21.08;52.47
31443;SHT31;18065;55.876;9.830;2022-07-17T10:24:24;21.09;52.43
31443;SHT31;18065;55.876;9.830;2022-07-17T10:26:53;21.19;52.46
31443;SHT31;18065;55.876;9.830;2022-07-17T10:29:31;21.27;52.48
31443;SHT31;18065;55.876;9.830;2022-07-17T10:32:08;21.28;52.57
31443;SHT31;18065;55.876;9.830;2022-07-17T10:34:39;21.27;52.84
31443;SHT31;18065;55.876;9.830;2022-07-17T10:37:19;21.34;52.69
31443;SHT31;18065;55.876;9.830;2022-07-17T10:39:56;21.38;52.51
31443;SHT31;18065;55.876;9.830;2022-07-17T10:42:52;21.36;52.69
31443;SHT31;18065;55.876;9.830;2022-07-17T10:45:24;21.27;52.72
31443;SHT31;18065;55.876;9.830;2022-07-17T10:47:59;21.34;52.65
31443;SHT31;18065;55.876;9.830;2022-07-17T10:50:30;21.43;52.36
31443;SHT31;18065;55.876;9.830;2022-07-17T10:53:11;21.45;52.41
31443;SHT31;18065;55.876;9.830;2022-07-17T10:55:43;21.53;52.18
31443;SHT31;18065;55.876;9.830;2022-07-17T10:58:20;21.59;52.01
31443;SHT31;18065;55.876;9.830;2022-07-17T11:00:59;21.67;51.98
31443;SHT31;18065;55.876;9.830;2022-07-17T11:03:35;21.65;52.11
31443;SHT31;18065;55.876;9.830;2022-07-17T11:06:08;21.62;52.13
31443;SHT31;18065;55.876;9.830;2022-07-17T11:08:45;21.66;51.71
31443;SHT31;18065;55.876;9.830;2022-07-17T11:11:15;21.70;51.57
31443;SHT31;18065;55.876;9.830;2022-07-17T11:13:44;21.77;51.32
31443;SHT31;18065;55.876;9.830;2022-07-17T11:16:24;21.77;51.22
31443;SHT31;18065;55.876;9.830;2022-07-17T11:18:55;21.77;51.49
31443;SHT31;18065;55.876;9.830;2022-07-17T11:21:24;21.71;51.84
31443;SHT31;18065;55.876;9.830;2022-07-17T11:23:55;21.80;51.53
31443;SHT31;18065;55.876;9.830;2022-07-17T11:26:24;21.81;51.47
31443;SHT31;18065;55.876;9.830;2022-07-17T11:28:55;21.81;51.59
31443;SHT31;18065;55.876;9.830;2022-07-17T11:31:25;21.83;51.64
31443;SHT31;18065;55.876;9.830;2022-07-17T11:33:58;21.90;51.39
31443;SHT31;18065;55.876;9.830;2022-07-17T11:36:29;21.94;51.28
31443;SHT31;18065;55.876;9.830;2022-07-17T11:39:03;21.94;51.57
31443;SHT31;18065;55.876;9.830;2022-07-17T11:41:37;22.07;51.14
31443;SHT31;18065;55.876;9.830;2022-07-17T11:44:08;22.16;51.10
31443;SHT31;18065;55.876;9.830;2022-07-17T11:46:40;22.11;51.33
31443;SHT31;18065;55.876;9.830;2022-07-17T11:49:23;22.06;51.45
31443;SHT31;18065;55.876;9.830;2022-07-17T11:51:55;22.07;51.42
31443;SHT31;18065;55.876;9.830;2022-07-17T11:54:24;22.07;51.11
31443;SHT31;18065;55.876;9.830;2022-07-17T11:56:56;22.07;51.21
31443;SHT31;18065;55.876;9.830;2022-07-17T11:59:29;22.16;51.37
31443;SHT31;18065;55.876;9.830;2022-07-17T12:02:07;22.20;51.34
31443;SHT31;18065;55.876;9.830;2022-07-17T12:04:48;22.16;51.40
31443;SHT31;18065;55.876;9.830;2022-07-17T12:07:18;22.13;51.34
31443;SHT31;18065;55.876;9.830;2022-07-17T12:09:47;22.14;51.30
31443;SHT31;18065;55.876;9.830;2022-07-17T12:12:19;22.13;51.49
31443;SHT31;18065;55.876;9.830;2022-07-17T12:14:50;22.20;51.25
31443;SHT31;18065;55.876;9.830;2022-07-17T12:17:20;22.18;51.17
31443;SHT31;18065;55.876;9.830;2022-07-17T12:19:53;22.18;51.25
31443;SHT31;18065;55.876;9.830;2022-07-17T12:22:21;22.20;51.09
31443;SHT31;18065;55.876;9.830;2022-07-17T12:24:51;22.18;51.24
31443;SHT31;18065;55.876;9.830;2022-07-17T12:27:20;22.14;51.16
31443;SHT31;18065;55.876;9.830;2022-07-17T12:29:49;22.14;51.37
31443;SHT31;18065;55.876;9.830;2022-07-17T12:32:18;22.17;51.51
31443;SHT31;18065;55.876;9.830;2022-07-17T12:34:48;22.28;51.35
31443;SHT31;18065;55.876;9.830;2022-07-17T12:37:21;22.27;51.21
31443;SHT31;18065;55.876;9.830;2022-07-17T12:39:50;22.27;51.19
31443;SHT31;18065;55.876;9.830;2022-07-17T12:42:21;22.21;51.17
31443;SHT31;18065;55.876;9.830;2022-07-17T12:44:50;22.22;51.20
31443;SHT31;18065;55.876;9.830;2022-07-17T12:47:19;22.28;51.20
31443;SHT31;18065;55.876;9.830;2022-07-17T12:49:48;22.31;51.09
31443;SHT31;18065;55.876;9.830;2022-07-17T12:52:17;22.35;51.03
31443;SHT31;18065;55.876;9.830;2022-07-17T12:54:48;22.42;50.76
31443;SHT31;18065;55.876;9.830;2022-07-17T12:57:17;22.37;51.12
31443;SHT31;18065;55.876;9.830;2022-07-17T12:59:45;22.38;50.92
31443;SHT31;18065;55.876;9.830;2022-07-17T13:02:14;22.39;50.86
31443;SHT31;18065;55.876;9.830;2022-07-17T13:04:43;22.45;50.70
31443;SHT31;18065;55.876;9.830;2022-07-17T13:07:11;22.49;50.70
31443;SHT31;18065;55.876;9.830;2022-07-17T13:09:40;22.52;50.63
31443;SHT31;18065;55.876;9.830;2022-07-17T13:12:11;22.55;50.66
31443;SHT31;18065;55.876;9.830;2022-07-17T13:14:40;22.52;50.81
31443;SHT31;18065;55.876;9.830;2022-07-17T13:17:09;22.58;50.53
31443;SHT31;18065;55.876;9.830;2022-07-17T13:19:37;22.58;50.55
31443;SHT31;18065;55.876;9.830;2022-07-17T13:22:06;22.58;50.57
31443;SHT31;18065;55.876;9.830;2022-07-17T13:24:35;22.59;50.62
31443;SHT31;18065;55.876;9.830;2022-07-17T13:27:04;22.61;50.47
31443;SHT31;18065;55.876;9.830;2022-07-17T13:29:35;22.66;50.36
31443;SHT31;18065;55.876;9.830;2022-07-17T13:32:05;22.64;50.51
31443;SHT31;18065;55.876;9.830;2022-07-17T13:34:34;22.68;50.19
31443;SHT31;18065;55.876;9.830;2022-07-17T13:37:02;22.80;49.96
31443;SHT31;18065;55.876;9.830;2022-07-17T13:39:32;22.87;49.81
31443;SHT31;18065;55.876;9.830;2022-07-17T13:42:02;22.82;49.87
31443;SHT31;18065;55.876;9.830;2022-07-17T13:44:30;22.77;50.03
31443;SHT31;18065;55.876;9.830;2022-07-17T13:47:02;22.85;49.81
31443;SHT31;18065;55.876;9.830;2022-07-17T13:49:30;22.89;49.71
31443;SHT31;18065;55.876;9.830;2022-07-17T13:51:59;22.96;49.46
31443;SHT31;18065;55.876;9.830;2022-07-17T13:54:28;22.92;49.66
31443;SHT31;18065;55.876;9.830;2022-07-17T13:56:57;22.99;49.48
31443;SHT31;18065;55.876;9.830;2022-07-17T13:59:25;23.09;49.20
31443;SHT31;18065;55.876;9.830;2022-07-17T14:01:54;23.13;49.06
31443;SHT31;18065;55.876;9.830;2022-07-17T14:04:26;23.20;48.87
31443;SHT31;18065;55.876;9.830;2022-07-17T14:06:54;23.22;48.91
31443;SHT31;18065;55.876;9.830;2022-07-17T14:09:23;23.26;48.96
31443;SHT31;18065;55.876;9.830;2022-07-17T14:11:53;23.24;48.95
31443;SHT31;18065;55.876;9.830;2022-07-17T14:14:22;23.34;48.86
31443;SHT31;18065;55.876;9.830;2022-07-17T14:16:53;23.31;48.95
31443;SHT31;18065;55.876;9.830;2022-07-17T14:19:21;23.31;48.97
31443;SHT31;18065;55.876;9.830;2022-07-17T14:21:53;23.28;49.09
31443;SHT31;18065;55.876;9.830;2022-07-17T14:24:21;23.38;48.70
31443;SHT31;18065;55.876;9.830;2022-07-17T14:26:51;23.47;48.47
31443;SHT31;18065;55.876;9.830;2022-07-17T14:29:19;23.50;48.49
31443;SHT31;18065;55.876;9.830;2022-07-17T14:31:52;23.50;48.63
31443;SHT31;18065;55.876;9.830;2022-07-17T14:34:20;23.50;48.65
31443;SHT31;18065;55.876;9.830;2022-07-17T14:36:52;23.47;48.83
31443;SHT31;18065;55.876;9.830;2022-07-17T14:39:21;23.51;48.66
31443;SHT31;18065;55.876;9.830;2022-07-17T14:41:51;23.58;48.51
31443;SHT31;18065;55.876;9.830;2022-07-17T14:44:20;23.61;48.45
31443;SHT31;18065;55.876;9.830;2022-07-17T14:46:48;23.62;48.49
31443;SHT31;18065;55.876;9.830;2022-07-17T14:49:17;23.61;48.46
31443;SHT31;18065;55.876;9.830;2022-07-17T14:51:46;23.66;48.28
31443;SHT31;18065;55.876;9.830;2022-07-17T14:54:17;23.64;48.33
31443;SHT31;18065;55.876;9.830;2022-07-17T14:56:46;23.64;48.56
31443;SHT31;18065;55.876;9.830;2022-07-17T14:59:15;23.66;48.41
31443;SHT31;18065;55.876;9.830;2022-07-17T15:01:43;23.74;48.29
31443;SHT31;18065;55.876;9.830;2022-07-17T15:04:12;23.78;48.20
31443;SHT31;18065;55.876;9.830;2022-07-17T15:06:41;23.75;48.21
31443;SHT31;18065;55.876;9.830;2022-07-17T15:09:11;23.77;48.22
31443;SHT31;18065;55.876;9.830;2022-07-17T15:11:42;23.82;48.15
31443;SHT31;18065;55.876;9.830;2022-07-17T15:14:11;23.81;48.22
31443;SHT31;18065;55.876;9.830;2022-07-17T15:16:40;23.81;48.20
31443;SHT31;18065;55.876;9.830;2022-07-17T15:19:08;23.81;48.34
31443;SHT31;18065;55.876;9.830;2022-07-17T15:21:38;23.84;48.30
31443;SHT31;18065;55.876;9.830;2022-07-17T15:24:06;23.84;48.45
31443;SHT31;18065;55.876;9.830;2022-07-17T15:26:36;23.86;48.56
31443;SHT31;18065;55.876;9.830;2022-07-17T15:29:09;23.86;48.48
31443;SHT31;18065;55.876;9.830;2022-07-17T15:31:37;23.88;48.48
31443;SHT31;18065;55.876;9.830;2022-07-17T15:34:06;23.88;48.62
31443;SHT31;18065;55.876;9.830;2022-07-17T15:36:35;23.86;48.66
31443;SHT31;18065;55.876;9.830;2022-07-17T15:39:03;23.89;48.61
31443;SHT31;18065;55.876;9.830;2022-07-17T15:41:32;23.86;48.67
31443;SHT31;18065;55.876;9.830;2022-07-17T15:44:01;23.85;48.54
31443;SHT31;18065;55.876;9.830;2022-07-17T15:46:33;23.85;48.81
31443;SHT31;18065;55.876;9.830;2022-07-17T15:49:02;23.84;48.81